Terminal Aerodrome Forecast
Issued by NWS

Home | Current Version | Previous Version | Text Only | Print | Product List | Glossary On
Versions: 1 2 3 4 5 6 7 8 9 10 11 12 13 14 15 16 17 18 19
000
FTUS43 KGRR 030848 AAB
TAFBTL
TAF AMD
KBTL 030848Z 0309/0406 27005KT P6SM SCT007
      TEMPO 0309/0311 2SM BR BKN007
     FM031300 30008KT P6SM SCT040
     FM031700 28014KT P6SM SCT040
     FM040100 25004KT P6SM SKC=

USA.gov is the U.S. government's official web portal to all federal, state and local government web resources and services.